sensor_id;sensor_type;location;lat;lon;timestamp;temperature;humidity
10312;DHT22;5201;48.776;9.128;2023-07-20T00:01:15;21.70;90.80
10312;DHT22;5201;48.776;9.128;2023-07-20T00:03:41;21.90;91.00
10312;DHT22;5201;48.776;9.128;2023-07-20T00:06:07;21.60;90.80
10312;DHT22;5201;48.776;9.128;2023-07-20T00:08:33;21.60;90.20
10312;DHT22;5201;48.776;9.128;2023-07-20T00:10:58;21.60;90.50
10312;DHT22;5201;48.776;9.128;2023-07-20T00:13:24;21.50;90.20
10312;DHT22;5201;48.776;9.128;2023-07-20T00:15:51;21.50;90.20
10312;DHT22;5201;48.776;9.128;2023-07-20T00:18:17;21.40;90.70
10312;DHT22;5201;48.776;9.128;2023-07-20T00:20:42;21.30;89.40
10312;DHT22;5201;48.776;9.128;2023-07-20T00:23:08;21.30;90.10
10312;DHT22;5201;48.776;9.128;2023-07-20T00:25:34;21.30;90.70
10312;DHT22;5201;48.776;9.128;2023-07-20T00:28:00;21.20;90.10
10312;DHT22;5201;48.776;9.128;2023-07-20T00:30:26;21.20;90.00
10312;DHT22;5201;48.776;9.128;2023-07-20T00:32:52;21.30;90.00
10312;DHT22;5201;48.776;9.128;2023-07-20T00:35:17;21.20;90.50
10312;DHT22;5201;48.776;9.128;2023-07-20T00:37:43;21.20;90.70
10312;DHT22;5201;48.776;9.128;2023-07-20T00:40:09;21.20;90.30
10312;DHT22;5201;48.776;9.128;2023-07-20T00:42:35;21.10;90.30
10312;DHT22;5201;48.776;9.128;2023-07-20T00:45:00;21.10;89.60
10312;DHT22;5201;48.776;9.128;2023-07-20T00:47:27;21.40;90.10
10312;DHT22;5201;48.776;9.128;2023-07-20T00:49:53;21.00;90.40
10312;DHT22;5201;48.776;9.128;2023-07-20T00:52:20;21.00;90.20
10312;DHT22;5201;48.776;9.128;2023-07-20T00:54:47;20.90;90.10
10312;DHT22;5201;48.776;9.128;2023-07-20T00:57:14;20.80;90.20
10312;DHT22;5201;48.776;9.128;2023-07-20T00:59:42;20.80;90.80
10312;DHT22;5201;48.776;9.128;2023-07-20T01:02:07;21.20;91.00
10312;DHT22;5201;48.776;9.128;2023-07-20T01:04:34;20.80;90.50
10312;DHT22;5201;48.776;9.128;2023-07-20T01:07:06;20.80;90.40
10312;DHT22;5201;48.776;9.128;2023-07-20T01:09:42;20.70;90.50
10312;DHT22;5201;48.776;9.128;2023-07-20T01:14:49;20.60;91.20
10312;DHT22;5201;48.776;9.128;2023-07-20T01:17:14;20.50;91.30
10312;DHT22;5201;48.776;9.128;2023-07-20T01:19:40;20.60;91.40
10312;DHT22;5201;48.776;9.128;2023-07-20T01:25:17;20.60;91.20
10312;DHT22;5201;48.776;9.128;2023-07-20T01:28:21;20.50;91.20
10312;DHT22;5201;48.776;9.128;2023-07-20T01:33:20;20.50;91.30
10312;DHT22;5201;48.776;9.128;2023-07-20T01:35:58;20.40;91.50
10312;DHT22;5201;48.776;9.128;2023-07-20T01:38:25;20.40;91.70
10312;DHT22;5201;48.776;9.128;2023-07-20T01:40:51;20.40;91.60
10312;DHT22;5201;48.776;9.128;2023-07-20T01:43:17;20.30;91.60
10312;DHT22;5201;48.776;9.128;2023-07-20T01:45:43;20.30;92.20
10312;DHT22;5201;48.776;9.128;2023-07-20T01:48:09;20.30;92.00
10312;DHT22;5201;48.776;9.128;2023-07-20T01:50:35;20.20;92.00
10312;DHT22;5201;48.776;9.128;2023-07-20T01:53:01;20.20;92.20
10312;DHT22;5201;48.776;9.128;2023-07-20T01:55:27;20.30;92.50
10312;DHT22;5201;48.776;9.128;2023-07-20T01:57:53;20.50;92.70
10312;DHT22;5201;48.776;9.128;2023-07-20T02:00:18;20.10;92.30
10312;DHT22;5201;48.776;9.128;2023-07-20T02:02:46;20.10;92.10
10312;DHT22;5201;48.776;9.128;2023-07-20T02:05:12;20.10;92.50
10312;DHT22;5201;48.776;9.128;2023-07-20T02:07:38;20.10;92.50
10312;DHT22;5201;48.776;9.128;2023-07-20T02:10:04;20.10;92.60
10312;DHT22;5201;48.776;9.128;2023-07-20T02:12:29;20.10;92.20
10312;DHT22;5201;48.776;9.128;2023-07-20T02:14:55;20.10;92.30
10312;DHT22;5201;48.776;9.128;2023-07-20T02:17:21;20.10;92.40
10312;DHT22;5201;48.776;9.128;2023-07-20T02:19:46;20.10;92.70
10312;DHT22;5201;48.776;9.128;2023-07-20T02:22:15;20.40;92.60
10312;DHT22;5201;48.776;9.128;2023-07-20T02:24:40;20.50;92.50
10312;DHT22;5201;48.776;9.128;2023-07-20T02:27:06;20.00;92.50
10312;DHT22;5201;48.776;9.128;2023-07-20T02:29:32;19.90;92.60
10312;DHT22;5201;48.776;9.128;2023-07-20T02:31:58;19.90;92.90
10312;DHT22;5201;48.776;9.128;2023-07-20T02:34:23;19.80;93.20
10312;DHT22;5201;48.776;9.128;2023-07-20T02:36:49;19.80;93.10
10312;DHT22;5201;48.776;9.128;2023-07-20T02:39:15;19.80;93.20
10312;DHT22;5201;48.776;9.128;2023-07-20T02:41:41;19.80;92.90
10312;DHT22;5201;48.776;9.128;2023-07-20T02:44:07;19.80;93.30
10312;DHT22;5201;48.776;9.128;2023-07-20T02:46:32;20.00;93.30
10312;DHT22;5201;48.776;9.128;2023-07-20T02:48:58;19.80;93.20
10312;DHT22;5201;48.776;9.128;2023-07-20T02:51:23;19.80;93.10
10312;DHT22;5201;48.776;9.128;2023-07-20T02:53:49;19.80;93.10
10312;DHT22;5201;48.776;9.128;2023-07-20T02:56:14;20.10;93.70
10312;DHT22;5201;48.776;9.128;2023-07-20T02:58:41;19.70;93.30
10312;DHT22;5201;48.776;9.128;2023-07-20T03:01:11;19.70;93.30
10312;DHT22;5201;48.776;9.128;2023-07-20T03:03:37;19.60;93.50
10312;DHT22;5201;48.776;9.128;2023-07-20T03:06:06;19.60;93.50
10312;DHT22;5201;48.776;9.128;2023-07-20T03:08:34;19.50;93.70
10312;DHT22;5201;48.776;9.128;2023-07-20T03:11:01;19.50;93.80
10312;DHT22;5201;48.776;9.128;2023-07-20T03:13:26;19.40;93.50
10312;DHT22;5201;48.776;9.128;2023-07-20T03:15:53;19.40;93.90
10312;DHT22;5201;48.776;9.128;2023-07-20T03:18:18;19.50;94.00
10312;DHT22;5201;48.776;9.128;2023-07-20T03:20:44;19.40;93.90
10312;DHT22;5201;48.776;9.128;2023-07-20T03:23:10;19.50;94.00
10312;DHT22;5201;48.776;9.128;2023-07-20T03:25:35;19.40;94.20
10312;DHT22;5201;48.776;9.128;2023-07-20T03:28:03;19.40;94.20
10312;DHT22;5201;48.776;9.128;2023-07-20T03:30:28;19.40;94.50
10312;DHT22;5201;48.776;9.128;2023-07-20T03:32:54;19.30;95.00
10312;DHT22;5201;48.776;9.128;2023-07-20T03:35:20;19.50;94.80
10312;DHT22;5201;48.776;9.128;2023-07-20T03:37:45;19.30;94.30
10312;DHT22;5201;48.776;9.128;2023-07-20T03:40:11;19.70;94.60
10312;DHT22;5201;48.776;9.128;2023-07-20T03:42:36;19.30;94.40
10312;DHT22;5201;48.776;9.128;2023-07-20T03:45:04;19.30;94.40
10312;DHT22;5201;48.776;9.128;2023-07-20T03:47:30;19.30;94.50
10312;DHT22;5201;48.776;9.128;2023-07-20T03:49:55;19.30;94.70
10312;DHT22;5201;48.776;9.128;2023-07-20T03:52:21;19.30;94.60
10312;DHT22;5201;48.776;9.128;2023-07-20T03:54:47;19.20;94.90
10312;DHT22;5201;48.776;9.128;2023-07-20T03:57:12;19.20;95.00
10312;DHT22;5201;48.776;9.128;2023-07-20T03:59:39;19.30;94.90
10312;DHT22;5201;48.776;9.128;2023-07-20T04:02:05;19.20;95.00
10312;DHT22;5201;48.776;9.128;2023-07-20T04:04:31;19.20;95.00
10312;DHT22;5201;48.776;9.128;2023-07-20T04:06:56;19.30;95.20
10312;DHT22;5201;48.776;9.128;2023-07-20T04:09:22;19.40;95.40
10312;DHT22;5201;48.776;9.128;2023-07-20T04:11:48;19.60;94.90
10312;DHT22;5201;48.776;9.128;2023-07-20T04:14:13;19.70;95.00
10312;DHT22;5201;48.776;9.128;2023-07-20T04:16:39;19.90;94.90
10312;DHT22;5201;48.776;9.128;2023-07-20T04:19:04;20.20;94.20
10312;DHT22;5201;48.776;9.128;2023-07-20T04:21:30;20.30;94.40
10312;DHT22;5201;48.776;9.128;2023-07-20T04:23:56;20.50;94.30
10312;DHT22;5201;48.776;9.128;2023-07-20T04:26:21;21.00;94.60
10312;DHT22;5201;48.776;9.128;2023-07-20T04:28:47;20.80;94.30
10312;DHT22;5201;48.776;9.128;2023-07-20T04:31:14;21.00;93.60
10312;DHT22;5201;48.776;9.128;2023-07-20T04:33:40;21.10;94.10
10312;DHT22;5201;48.776;9.128;2023-07-20T04:36:06;20.90;94.50
10312;DHT22;5201;48.776;9.128;2023-07-20T04:38:32;20.90;94.20
10312;DHT22;5201;48.776;9.128;2023-07-20T04:40:58;20.80;93.90
10312;DHT22;5201;48.776;9.128;2023-07-20T04:43:23;20.80;94.00
10312;DHT22;5201;48.776;9.128;2023-07-20T04:45:49;20.70;94.90
10312;DHT22;5201;48.776;9.128;2023-07-20T04:48:16;20.60;95.00
10312;DHT22;5201;48.776;9.128;2023-07-20T04:50:44;20.50;95.00
10312;DHT22;5201;48.776;9.128;2023-07-20T04:53:10;20.40;95.10
10312;DHT22;5201;48.776;9.128;2023-07-20T04:55:37;20.50;94.70
10312;DHT22;5201;48.776;9.128;2023-07-20T04:58:04;20.50;94.30
10312;DHT22;5201;48.776;9.128;2023-07-20T05:00:30;20.50;94.50
10312;DHT22;5201;48.776;9.128;2023-07-20T05:02:56;20.50;94.30
10312;DHT22;5201;48.776;9.128;2023-07-20T05:05:21;20.50;94.40
10312;DHT22;5201;48.776;9.128;2023-07-20T05:07:47;20.30;94.60
10312;DHT22;5201;48.776;9.128;2023-07-20T05:10:13;20.40;94.90
10312;DHT22;5201;48.776;9.128;2023-07-20T05:12:38;20.30;95.60
10312;DHT22;5201;48.776;9.128;2023-07-20T05:15:04;20.50;95.20
10312;DHT22;5201;48.776;9.128;2023-07-20T05:17:30;20.40;95.20
10312;DHT22;5201;48.776;9.128;2023-07-20T05:19:56;20.40;95.50
10312;DHT22;5201;48.776;9.128;2023-07-20T05:22:21;20.50;95.50
10312;DHT22;5201;48.776;9.128;2023-07-20T05:24:47;20.60;94.90
10312;DHT22;5201;48.776;9.128;2023-07-20T05:27:12;20.60;95.60
10312;DHT22;5201;48.776;9.128;2023-07-20T05:29:43;20.60;95.20
10312;DHT22;5201;48.776;9.128;2023-07-20T05:32:08;20.60;95.30
10312;DHT22;5201;48.776;9.128;2023-07-20T05:34:35;20.60;94.80
10312;DHT22;5201;48.776;9.128;2023-07-20T05:37:00;20.60;95.80
10312;DHT22;5201;48.776;9.128;2023-07-20T05:39:26;20.50;96.90
10312;DHT22;5201;48.776;9.128;2023-07-20T05:41:51;20.50;97.90
10312;DHT22;5201;48.776;9.128;2023-07-20T05:44:17;20.50;97.80
10312;DHT22;5201;48.776;9.128;2023-07-20T05:46:43;20.50;97.40
10312;DHT22;5201;48.776;9.128;2023-07-20T05:49:08;20.60;97.20
10312;DHT22;5201;48.776;9.128;2023-07-20T05:51:34;20.60;97.10
10312;DHT22;5201;48.776;9.128;2023-07-20T05:53:59;20.60;96.30
10312;DHT22;5201;48.776;9.128;2023-07-20T05:56:25;20.70;97.00
10312;DHT22;5201;48.776;9.128;2023-07-20T05:58:51;20.80;97.70
10312;DHT22;5201;48.776;9.128;2023-07-20T06:01:16;20.80;96.60
10312;DHT22;5201;48.776;9.128;2023-07-20T06:03:43;21.00;96.90
10312;DHT22;5201;48.776;9.128;2023-07-20T06:06:09;21.10;96.70
10312;DHT22;5201;48.776;9.128;2023-07-20T06:08:37;20.50;96.50
10312;DHT22;5201;48.776;9.128;2023-07-20T06:11:03;21.00;96.20
10312;DHT22;5201;48.776;9.128;2023-07-20T06:13:28;21.10;96.20
10312;DHT22;5201;48.776;9.128;2023-07-20T06:15:54;21.20;96.30
10312;DHT22;5201;48.776;9.128;2023-07-20T06:18:22;21.20;97.40
10312;DHT22;5201;48.776;9.128;2023-07-20T06:20:51;21.00;96.70
10312;DHT22;5201;48.776;9.128;2023-07-20T06:23:19;21.00;97.10
10312;DHT22;5201;48.776;9.128;2023-07-20T06:25:44;21.10;96.80
10312;DHT22;5201;48.776;9.128;2023-07-20T06:28:10;21.20;96.80
10312;DHT22;5201;48.776;9.128;2023-07-20T06:30:36;21.20;97.80
10312;DHT22;5201;48.776;9.128;2023-07-20T06:33:02;21.30;96.50
10312;DHT22;5201;48.776;9.128;2023-07-20T06:35:27;21.40;96.60
10312;DHT22;5201;48.776;9.128;2023-07-20T06:37:53;21.40;96.20
10312;DHT22;5201;48.776;9.128;2023-07-20T06:40:19;21.60;97.70
10312;DHT22;5201;48.776;9.128;2023-07-20T06:42:44;21.60;96.20
10312;DHT22;5201;48.776;9.128;2023-07-20T06:45:10;22.20;96.60
10312;DHT22;5201;48.776;9.128;2023-07-20T06:47:39;21.90;97.10
10312;DHT22;5201;48.776;9.128;2023-07-20T06:50:09;22.00;97.60
10312;DHT22;5201;48.776;9.128;2023-07-20T06:52:35;22.20;96.20
10312;DHT22;5201;48.776;9.128;2023-07-20T06:55:01;22.40;96.10
10312;DHT22;5201;48.776;9.128;2023-07-20T06:57:26;22.40;96.00
10312;DHT22;5201;48.776;9.128;2023-07-20T06:59:52;22.50;95.30
10312;DHT22;5201;48.776;9.128;2023-07-20T07:02:19;22.50;95.10
10312;DHT22;5201;48.776;9.128;2023-07-20T07:04:44;22.40;95.20
10312;DHT22;5201;48.776;9.128;2023-07-20T07:07:15;22.40;96.40
10312;DHT22;5201;48.776;9.128;2023-07-20T07:09:41;22.60;96.70
10312;DHT22;5201;48.776;9.128;2023-07-20T07:12:07;22.90;94.80
10312;DHT22;5201;48.776;9.128;2023-07-20T07:14:33;23.20;95.30
10312;DHT22;5201;48.776;9.128;2023-07-20T07:17:00;23.50;94.90
10312;DHT22;5201;48.776;9.128;2023-07-20T07:19:25;23.70;93.90
10312;DHT22;5201;48.776;9.128;2023-07-20T07:21:51;23.80;93.80
10312;DHT22;5201;48.776;9.128;2023-07-20T07:24:17;23.80;94.10
10312;DHT22;5201;48.776;9.128;2023-07-20T07:26:42;23.70;93.70
10312;DHT22;5201;48.776;9.128;2023-07-20T07:29:08;23.90;94.20
10312;DHT22;5201;48.776;9.128;2023-07-20T07:31:36;24.10;94.20
10312;DHT22;5201;48.776;9.128;2023-07-20T07:34:04;24.10;93.50
10312;DHT22;5201;48.776;9.128;2023-07-20T07:36:30;24.10;92.80
10312;DHT22;5201;48.776;9.128;2023-07-20T07:38:56;24.20;93.60
10312;DHT22;5201;48.776;9.128;2023-07-20T07:41:21;24.40;93.50
10312;DHT22;5201;48.776;9.128;2023-07-20T07:43:47;24.60;93.80
10312;DHT22;5201;48.776;9.128;2023-07-20T07:46:13;24.70;92.80
10312;DHT22;5201;48.776;9.128;2023-07-20T07:48:39;24.80;93.20
10312;DHT22;5201;48.776;9.128;2023-07-20T07:51:05;25.00;94.40
10312;DHT22;5201;48.776;9.128;2023-07-20T07:53:31;25.20;92.20
10312;DHT22;5201;48.776;9.128;2023-07-20T07:55:58;25.10;92.10
10312;DHT22;5201;48.776;9.128;2023-07-20T07:58:23;24.90;92.80
10312;DHT22;5201;48.776;9.128;2023-07-20T08:00:49;24.70;91.80
10312;DHT22;5201;48.776;9.128;2023-07-20T08:03:15;24.20;92.70
10312;DHT22;5201;48.776;9.128;2023-07-20T08:05:41;24.10;92.10
10312;DHT22;5201;48.776;9.128;2023-07-20T08:08:06;23.60;91.50
10312;DHT22;5201;48.776;9.128;2023-07-20T08:10:32;23.70;93.00
10312;DHT22;5201;48.776;9.128;2023-07-20T08:12:57;23.60;92.40
10312;DHT22;5201;48.776;9.128;2023-07-20T08:15:23;23.70;92.50
10312;DHT22;5201;48.776;9.128;2023-07-20T08:17:49;23.90;92.90
10312;DHT22;5201;48.776;9.128;2023-07-20T08:20:17;24.00;92.80
10312;DHT22;5201;48.776;9.128;2023-07-20T08:22:43;24.30;92.50
10312;DHT22;5201;48.776;9.128;2023-07-20T08:25:09;24.40;91.90
10312;DHT22;5201;48.776;9.128;2023-07-20T08:27:36;24.40;91.60
10312;DHT22;5201;48.776;9.128;2023-07-20T08:30:02;24.40;91.80
10312;DHT22;5201;48.776;9.128;2023-07-20T08:32:29;24.40;92.00
10312;DHT22;5201;48.776;9.128;2023-07-20T08:34:55;24.40;91.70
10312;DHT22;5201;48.776;9.128;2023-07-20T08:37:20;24.70;91.50
10312;DHT22;5201;48.776;9.128;2023-07-20T08:39:46;24.70;90.10
10312;DHT22;5201;48.776;9.128;2023-07-20T08:42:13;24.70;89.80
10312;DHT22;5201;48.776;9.128;2023-07-20T08:44:41;25.10;90.80
10312;DHT22;5201;48.776;9.128;2023-07-20T08:47:09;24.90;91.10
10312;DHT22;5201;48.776;9.128;2023-07-20T08:49:35;25.10;91.50
10312;DHT22;5201;48.776;9.128;2023-07-20T08:52:01;25.20;90.60
10312;DHT22;5201;48.776;9.128;2023-07-20T08:54:30;25.10;90.40
10312;DHT22;5201;48.776;9.128;2023-07-20T08:57:01;25.30;90.50
10312;DHT22;5201;48.776;9.128;2023-07-20T08:59:28;25.70;89.10
10312;DHT22;5201;48.776;9.128;2023-07-20T09:01:55;26.00;90.60
10312;DHT22;5201;48.776;9.128;2023-07-20T09:04:22;26.40;89.20
10312;DHT22;5201;48.776;9.128;2023-07-20T09:06:49;26.30;86.40
10312;DHT22;5201;48.776;9.128;2023-07-20T09:09:15;26.00;86.70
10312;DHT22;5201;48.776;9.128;2023-07-20T09:11:42;25.50;88.10
10312;DHT22;5201;48.776;9.128;2023-07-20T09:14:08;25.10;89.70
10312;DHT22;5201;48.776;9.128;2023-07-20T09:16:51;24.90;89.70
10312;DHT22;5201;48.776;9.128;2023-07-20T09:19:17;25.20;91.20
10312;DHT22;5201;48.776;9.128;2023-07-20T09:21:48;25.90;90.00
10312;DHT22;5201;48.776;9.128;2023-07-20T09:24:14;26.20;85.00
10312;DHT22;5201;48.776;9.128;2023-07-20T09:26:44;26.20;86.10
10312;DHT22;5201;48.776;9.128;2023-07-20T09:29:10;25.90;85.80
10312;DHT22;5201;48.776;9.128;2023-07-20T09:31:36;25.30;88.90
10312;DHT22;5201;48.776;9.128;2023-07-20T09:34:02;25.00;89.00
10312;DHT22;5201;48.776;9.128;2023-07-20T09:36:29;24.80;90.00
10312;DHT22;5201;48.776;9.128;2023-07-20T09:38:55;25.20;88.40
10312;DHT22;5201;48.776;9.128;2023-07-20T09:41:21;25.80;87.40
10312;DHT22;5201;48.776;9.128;2023-07-20T09:43:47;26.50;88.10
10312;DHT22;5201;48.776;9.128;2023-07-20T09:46:12;26.80;82.00
10312;DHT22;5201;48.776;9.128;2023-07-20T09:48:39;27.30;84.10
10312;DHT22;5201;48.776;9.128;2023-07-20T09:51:05;27.40;80.90
10312;DHT22;5201;48.776;9.128;2023-07-20T09:53:33;26.90;80.10
10312;DHT22;5201;48.776;9.128;2023-07-20T09:55:59;26.50;79.90
10312;DHT22;5201;48.776;9.128;2023-07-20T09:58:26;26.20;82.60
10312;DHT22;5201;48.776;9.128;2023-07-20T10:00:56;26.10;81.30
10312;DHT22;5201;48.776;9.128;2023-07-20T10:03:29;26.20;84.00
10312;DHT22;5201;48.776;9.128;2023-07-20T10:06:06;26.70;85.00
10312;DHT22;5201;48.776;9.128;2023-07-20T10:08:37;27.20;81.70
10312;DHT22;5201;48.776;9.128;2023-07-20T10:11:05;27.30;80.40
10312;DHT22;5201;48.776;9.128;2023-07-20T10:13:37;27.10;79.00
10312;DHT22;5201;48.776;9.128;2023-07-20T10:16:10;27.00;79.80
10312;DHT22;5201;48.776;9.128;2023-07-20T10:18:50;26.90;79.70
10312;DHT22;5201;48.776;9.128;2023-07-20T10:21:17;26.80;79.80
10312;DHT22;5201;48.776;9.128;2023-07-20T10:23:45;26.80;79.60
10312;DHT22;5201;48.776;9.128;2023-07-20T10:26:11;26.60;79.60
10312;DHT22;5201;48.776;9.128;2023-07-20T10:28:38;26.60;82.70
10312;DHT22;5201;48.776;9.128;2023-07-20T10:31:09;26.10;79.70
10312;DHT22;5201;48.776;9.128;2023-07-20T10:33:36;26.00;79.80
10312;DHT22;5201;48.776;9.128;2023-07-20T10:36:04;26.10;81.40
10312;DHT22;5201;48.776;9.128;2023-07-20T10:41:34;26.30;78.60
10312;DHT22;5201;48.776;9.128;2023-07-20T10:44:06;26.10;78.80
10312;DHT22;5201;48.776;9.128;2023-07-20T10:49:05;26.20;78.40
10312;DHT22;5201;48.776;9.128;2023-07-20T10:51:39;26.20;77.60
10312;DHT22;5201;48.776;9.128;2023-07-20T10:56:49;26.30;76.70
10312;DHT22;5201;48.776;9.128;2023-07-20T10:59:37;26.40;77.50
10312;DHT22;5201;48.776;9.128;2023-07-20T11:02:10;26.60;78.60
10312;DHT22;5201;48.776;9.128;2023-07-20T11:04:39;26.70;76.00
10312;DHT22;5201;48.776;9.128;2023-07-20T11:07:05;26.50;76.60
10312;DHT22;5201;48.776;9.128;2023-07-20T11:09:38;26.60;75.90
10312;DHT22;5201;48.776;9.128;2023-07-20T11:12:15;26.90;77.90
10312;DHT22;5201;48.776;9.128;2023-07-20T11:15:03;27.40;74.80
10312;DHT22;5201;48.776;9.128;2023-07-20T11:17:30;27.70;74.10
10312;DHT22;5201;48.776;9.128;2023-07-20T11:19:56;28.00;73.70
10312;DHT22;5201;48.776;9.128;2023-07-20T11:22:23;28.00;72.10
10312;DHT22;5201;48.776;9.128;2023-07-20T11:24:48;27.90;73.20
10312;DHT22;5201;48.776;9.128;2023-07-20T11:27:14;27.90;72.80
10312;DHT22;5201;48.776;9.128;2023-07-20T11:29:40;27.90;72.80
10312;DHT22;5201;48.776;9.128;2023-07-20T11:32:06;27.80;74.10
10312;DHT22;5201;48.776;9.128;2023-07-20T11:34:33;27.50;73.50
10312;DHT22;5201;48.776;9.128;2023-07-20T11:36:59;27.40;74.50
10312;DHT22;5201;48.776;9.128;2023-07-20T11:39:25;27.50;74.20
10312;DHT22;5201;48.776;9.128;2023-07-20T11:41:52;27.60;75.20
10312;DHT22;5201;48.776;9.128;2023-07-20T11:44:21;27.80;74.00
10312;DHT22;5201;48.776;9.128;2023-07-20T11:49:46;28.00;74.70
10312;DHT22;5201;48.776;9.128;2023-07-20T11:52:16;27.90;71.40
10312;DHT22;5201;48.776;9.128;2023-07-20T11:54:43;27.60;72.40
10312;DHT22;5201;48.776;9.128;2023-07-20T11:57:18;27.60;73.00
10312;DHT22;5201;48.776;9.128;2023-07-20T11:59:57;27.30;73.60
10312;DHT22;5201;48.776;9.128;2023-07-20T12:02:26;27.20;73.60
10312;DHT22;5201;48.776;9.128;2023-07-20T12:04:53;27.20;70.20
10312;DHT22;5201;48.776;9.128;2023-07-20T12:07:19;27.30;71.60
10312;DHT22;5201;48.776;9.128;2023-07-20T12:10:02;27.30;71.80
10312;DHT22;5201;48.776;9.128;2023-07-20T12:12:28;27.20;70.60
10312;DHT22;5201;48.776;9.128;2023-07-20T12:14:53;27.00;70.40
10312;DHT22;5201;48.776;9.128;2023-07-20T12:17:19;27.10;72.50
10312;DHT22;5201;48.776;9.128;2023-07-20T12:19:45;27.00;70.10
10312;DHT22;5201;48.776;9.128;2023-07-20T12:22:11;26.90;72.00
10312;DHT22;5201;48.776;9.128;2023-07-20T12:24:37;26.70;71.90
10312;DHT22;5201;48.776;9.128;2023-07-20T12:27:03;26.70;71.30
10312;DHT22;5201;48.776;9.128;2023-07-20T12:29:29;26.70;71.70
10312;DHT22;5201;48.776;9.128;2023-07-20T12:31:54;26.60;74.60
10312;DHT22;5201;48.776;9.128;2023-07-20T12:34:20;26.60;73.70
10312;DHT22;5201;48.776;9.128;2023-07-20T12:36:46;26.40;74.30
10312;DHT22;5201;48.776;9.128;2023-07-20T12:39:11;26.30;73.30
10312;DHT22;5201;48.776;9.128;2023-07-20T12:41:37;26.10;74.20
10312;DHT22;5201;48.776;9.128;2023-07-20T12:44:02;26.00;75.70
10312;DHT22;5201;48.776;9.128;2023-07-20T12:46:28;26.00;76.60
10312;DHT22;5201;48.776;9.128;2023-07-20T12:48:55;25.90;74.10
10312;DHT22;5201;48.776;9.128;2023-07-20T12:51:21;25.90;73.10
10312;DHT22;5201;48.776;9.128;2023-07-20T12:53:46;25.70;74.30
10312;DHT22;5201;48.776;9.128;2023-07-20T12:56:12;25.70;75.00
10312;DHT22;5201;48.776;9.128;2023-07-20T12:58:38;25.70;75.30
10312;DHT22;5201;48.776;9.128;2023-07-20T13:01:04;25.80;73.70
10312;DHT22;5201;48.776;9.128;2023-07-20T13:03:29;25.90;73.10
10312;DHT22;5201;48.776;9.128;2023-07-20T13:05:55;26.00;73.50
10312;DHT22;5201;48.776;9.128;2023-07-20T13:08:21;26.00;73.70
10312;DHT22;5201;48.776;9.128;2023-07-20T13:10:50;26.00;71.20
10312;DHT22;5201;48.776;9.128;2023-07-20T13:13:16;26.10;73.60
10312;DHT22;5201;48.776;9.128;2023-07-20T13:15:44;26.00;71.10
10312;DHT22;5201;48.776;9.128;2023-07-20T13:18:09;25.90;70.90
10312;DHT22;5201;48.776;9.128;2023-07-20T13:20:35;25.90;72.70
10312;DHT22;5201;48.776;9.128;2023-07-20T13:23:01;25.80;71.70
10312;DHT22;5201;48.776;9.128;2023-07-20T13:25:26;25.80;73.30
10312;DHT22;5201;48.776;9.128;2023-07-20T13:27:53;25.90;71.10
10312;DHT22;5201;48.776;9.128;2023-07-20T13:30:19;25.90;71.90
10312;DHT22;5201;48.776;9.128;2023-07-20T13:32:46;26.00;70.60
10312;DHT22;5201;48.776;9.128;2023-07-20T13:35:12;26.00;70.90
10312;DHT22;5201;48.776;9.128;2023-07-20T13:37:38;26.10;71.60
10312;DHT22;5201;48.776;9.128;2023-07-20T13:40:04;26.10;73.30
10312;DHT22;5201;48.776;9.128;2023-07-20T13:42:31;26.10;71.60
10312;DHT22;5201;48.776;9.128;2023-07-20T13:44:57;26.00;72.00
10312;DHT22;5201;48.776;9.128;2023-07-20T13:47:22;26.00;70.00
10312;DHT22;5201;48.776;9.128;2023-07-20T13:49:48;25.90;72.10
10312;DHT22;5201;48.776;9.128;2023-07-20T13:52:14;25.80;70.30
10312;DHT22;5201;48.776;9.128;2023-07-20T13:54:40;25.70;71.00
10312;DHT22;5201;48.776;9.128;2023-07-20T13:57:05;25.80;71.60
10312;DHT22;5201;48.776;9.128;2023-07-20T13:59:31;25.80;71.40
10312;DHT22;5201;48.776;9.128;2023-07-20T14:01:57;25.80;72.50
10312;DHT22;5201;48.776;9.128;2023-07-20T14:04:22;25.70;71.80
10312;DHT22;5201;48.776;9.128;2023-07-20T14:06:48;25.70;71.00
10312;DHT22;5201;48.776;9.128;2023-07-20T14:09:13;25.70;70.20
10312;DHT22;5201;48.776;9.128;2023-07-20T14:11:39;25.80;72.80
10312;DHT22;5201;48.776;9.128;2023-07-20T14:14:04;24.00;70.40
10312;DHT22;5201;48.776;9.128;2023-07-20T14:16:30;25.90;69.70
10312;DHT22;5201;48.776;9.128;2023-07-20T14:18:58;25.90;70.20
10312;DHT22;5201;48.776;9.128;2023-07-20T14:21:23;25.90;70.70
10312;DHT22;5201;48.776;9.128;2023-07-20T14:23:51;25.90;70.30
10312;DHT22;5201;48.776;9.128;2023-07-20T14:26:17;25.90;69.80
10312;DHT22;5201;48.776;9.128;2023-07-20T14:28:42;25.90;69.10
10312;DHT22;5201;48.776;9.128;2023-07-20T14:31:08;25.90;71.80
10312;DHT22;5201;48.776;9.128;2023-07-20T14:33:34;25.90;71.40
10312;DHT22;5201;48.776;9.128;2023-07-20T14:36:01;25.90;69.00
10312;DHT22;5201;48.776;9.128;2023-07-20T14:38:28;25.90;69.60
10312;DHT22;5201;48.776;9.128;2023-07-20T14:40:54;25.90;70.80
10312;DHT22;5201;48.776;9.128;2023-07-20T14:43:19;25.90;69.40
10312;DHT22;5201;48.776;9.128;2023-07-20T14:45:45;25.90;68.60
10312;DHT22;5201;48.776;9.128;2023-07-20T14:48:11;26.00;67.90
10312;DHT22;5201;48.776;9.128;2023-07-20T14:50:36;25.90;69.50
10312;DHT22;5201;48.776;9.128;2023-07-20T14:53:02;26.00;70.00
10312;DHT22;5201;48.776;9.128;2023-07-20T14:55:28;25.90;69.20
10312;DHT22;5201;48.776;9.128;2023-07-20T14:57:54;25.90;69.30
10312;DHT22;5201;48.776;9.128;2023-07-20T15:00:20;25.90;69.00
10312;DHT22;5201;48.776;9.128;2023-07-20T15:02:45;25.80;69.10
10312;DHT22;5201;48.776;9.128;2023-07-20T15:05:11;25.80;69.60
10312;DHT22;5201;48.776;9.128;2023-07-20T15:07:37;25.80;70.20
10312;DHT22;5201;48.776;9.128;2023-07-20T15:10:03;25.70;69.80
10312;DHT22;5201;48.776;9.128;2023-07-20T15:12:30;25.80;70.30
10312;DHT22;5201;48.776;9.128;2023-07-20T15:15:04;25.80;70.70
10312;DHT22;5201;48.776;9.128;2023-07-20T15:17:34;25.90;71.00
10312;DHT22;5201;48.776;9.128;2023-07-20T15:20:01;25.80;70.00
10312;DHT22;5201;48.776;9.128;2023-07-20T15:22:30;25.80;71.30
10312;DHT22;5201;48.776;9.128;2023-07-20T15:24:56;25.90;71.30
10312;DHT22;5201;48.776;9.128;2023-07-20T15:27:21;26.00;69.50
10312;DHT22;5201;48.776;9.128;2023-07-20T15:29:48;25.90;67.80
10312;DHT22;5201;48.776;9.128;2023-07-20T15:32:14;25.80;67.80
10312;DHT22;5201;48.776;9.128;2023-07-20T15:34:42;25.80;69.80
10312;DHT22;5201;48.776;9.128;2023-07-20T15:37:09;25.70;70.40
10312;DHT22;5201;48.776;9.128;2023-07-20T15:39:35;25.50;70.40
10312;DHT22;5201;48.776;9.128;2023-07-20T15:42:01;25.40;69.90
10312;DHT22;5201;48.776;9.128;2023-07-20T15:44:26;25.40;70.00
10312;DHT22;5201;48.776;9.128;2023-07-20T15:46:52;25.30;70.20
10312;DHT22;5201;48.776;9.128;2023-07-20T15:49:18;25.40;71.70
10312;DHT22;5201;48.776;9.128;2023-07-20T15:51:44;25.40;70.20
10312;DHT22;5201;48.776;9.128;2023-07-20T15:54:12;25.50;71.50
10312;DHT22;5201;48.776;9.128;2023-07-20T15:56:39;25.50;71.00
10312;DHT22;5201;48.776;9.128;2023-07-20T15:59:07;25.40;69.80
10312;DHT22;5201;48.776;9.128;2023-07-20T16:01:33;25.30;70.10